createdAt,value
2019-03-15T00:01:58.939Z,99603.67
2019-03-15T00:04:28.443Z,99616.08
2019-03-15T00:06:57.944Z,99621.75
2019-03-15T00:09:27.445Z,99623.55
2019-03-15T00:11:56.957Z,99624.82
2019-03-15T00:14:26.461Z,99623.39
2019-03-15T00:16:55.968Z,99615.53
2019-03-15T00:19:25.477Z,99625.67
2019-03-15T00:21:54.998Z,99632.61
2019-03-15T00:24:24.511Z,99642.19
2019-03-15T00:26:54.032Z,99635.60
2019-03-15T00:29:23.554Z,99632.31
2019-03-15T00:31:53.156Z,99641.42
2019-03-15T00:34:22.735Z,99644.52
2019-03-15T00:36:52.234Z,99633.12
2019-03-15T00:39:21.960Z,99645.85
2019-03-15T00:41:51.686Z,99637.02
2019-03-15T00:44:21.207Z,99645.08
2019-03-15T00:46:50.698Z,99652.49
2019-03-15T00:49:20.337Z,99641.06
2019-03-15T00:51:49.812Z,99654.67
2019-03-15T00:54:19.315Z,99656.58
2019-03-15T00:56:48.810Z,99652.49
2019-03-15T00:59:18.407Z,99656.30
2019-03-15T01:01:47.918Z,99666.20
2019-03-15T01:04:17.433Z,99660.20
2019-03-15T01:06:47.922Z,99659.45
2019-03-15T01:09:17.409Z,99658.02
2019-03-15T01:11:46.929Z,99660.00
2019-03-15T01:14:16.421Z,99664.95
2019-03-15T01:16:45.941Z,99661.80
2019-03-15T01:19:15.441Z,99661.67
2019-03-15T01:21:44.941Z,99655.70
2019-03-15T01:24:14.443Z,99663.59
2019-03-15T01:26:44.096Z,99666.58
2019-03-15T01:29:13.517Z,99671.36
2019-03-15T01:31:43.028Z,99675.47
2019-03-15T01:34:12.528Z,99679.20
2019-03-15T01:36:42.028Z,99677.27
2019-03-15T01:39:12.498Z,99675.86
2019-03-15T01:41:42.015Z,99683.30
2019-03-15T01:44:11.530Z,99685.22
2019-03-15T01:46:41.047Z,99679.66
2019-03-15T01:49:10.566Z,99688.05
2019-03-15T01:51:40.088Z,99680.52
2019-03-15T01:54:09.609Z,99680.98
2019-03-15T01:56:39.133Z,99685.27
2019-03-15T01:59:08.654Z,99690.17
2019-03-15T02:01:38.198Z,99700.48
2019-03-15T02:04:07.726Z,99695.36
2019-03-15T02:06:37.257Z,99693.52
2019-03-15T02:09:09.310Z,99693.96
2019-03-15T02:11:38.355Z,99688.70
2019-03-15T02:14:07.881Z,99684.45
2019-03-15T02:16:37.406Z,99690.20
2019-03-15T02:19:06.928Z,99696.22
2019-03-15T02:21:36.526Z,99692.64
2019-03-15T02:24:06.106Z,99691.36
2019-03-15T02:26:35.680Z,99691.58
2019-03-15T02:29:05.249Z,99692.25
2019-03-15T02:31:34.745Z,99689.03
2019-03-15T02:34:04.277Z,99689.66
2019-03-15T02:36:33.754Z,99678.70
2019-03-15T02:39:04.333Z,99686.77
2019-03-15T02:41:33.825Z,99691.36
2019-03-15T02:44:03.399Z,99688.26
2019-03-15T02:46:32.902Z,99685.72
2019-03-15T02:49:02.398Z,99696.44
2019-03-15T02:51:31.909Z,99695.59
2019-03-15T02:54:01.438Z,99700.09
2019-03-15T02:56:30.952Z,99691.37
2019-03-15T02:59:00.473Z,99697.20
2019-03-15T03:01:30.003Z,99698.97
2019-03-15T03:03:59.522Z,99691.50
2019-03-15T03:06:29.141Z,99700.45
2019-03-15T03:08:58.647Z,99701.14
2019-03-15T03:11:28.164Z,99693.73
2019-03-15T03:13:57.681Z,99707.94
2019-03-15T03:16:27.203Z,99686.88
2019-03-15T03:18:56.729Z,99565.03
2019-03-15T03:21:26.246Z,99686.08
2019-03-15T03:23:57.331Z,99692.82
2019-03-15T03:26:28.240Z,99697.23
2019-03-15T03:28:57.767Z,99702.55
2019-03-15T03:31:27.289Z,99702.19
2019-03-15T03:33:56.803Z,99708.27
2019-03-15T03:36:26.323Z,99706.08
2019-03-15T03:38:55.851Z,99712.72
2019-03-15T03:41:25.418Z,99710.09
2019-03-15T03:43:54.895Z,99705.69
2019-03-15T03:46:24.409Z,99704.02
2019-03-15T03:48:53.920Z,99709.86
2019-03-15T03:51:23.417Z,99706.33
2019-03-15T03:53:52.924Z,99707.99
2019-03-15T03:56:22.419Z,99701.91
2019-03-15T03:58:51.927Z,99709.38
2019-03-15T04:01:21.427Z,99700.86
2019-03-15T04:03:50.938Z,99706.55
2019-03-15T04:06:20.440Z,99695.20
2019-03-15T04:08:49.955Z,99709.31
2019-03-15T04:11:19.508Z,99696.11
2019-03-15T04:13:49.939Z,99703.73
2019-03-15T04:16:19.433Z,99699.45
2019-03-15T04:18:48.951Z,99697.57
2019-03-15T04:21:18.461Z,99691.52
2019-03-15T04:23:48.967Z,99687.30
2019-03-15T04:26:18.471Z,99695.75
2019-03-15T04:28:47.974Z,99696.73
2019-03-15T04:31:17.491Z,99699.44
2019-03-15T04:33:47.102Z,99699.23
2019-03-15T04:36:16.583Z,99700.34
2019-03-15T04:38:46.101Z,99697.28
2019-03-15T04:41:15.656Z,99705.84
2019-03-15T04:43:45.154Z,99701.20
2019-03-15T04:46:14.676Z,99716.72
2019-03-15T04:48:44.213Z,99721.31
2019-03-15T04:51:13.750Z,99714.23
2019-03-15T04:53:43.272Z,99718.66
2019-03-15T04:56:12.792Z,99726.05
2019-03-15T04:58:42.297Z,99729.34
2019-03-15T05:01:11.827Z,99734.52
2019-03-15T05:03:41.342Z,99729.42
2019-03-15T05:06:10.860Z,99733.19
2019-03-15T05:08:40.369Z,99738.41
2019-03-15T05:11:09.894Z,99729.02
2019-03-15T05:13:40.299Z,99726.22
2019-03-15T05:16:09.810Z,99720.42
2019-03-15T05:18:39.318Z,99713.60
2019-03-15T05:21:08.825Z,99717.27
2019-03-15T05:23:38.342Z,99714.28
2019-03-15T05:26:08.583Z,99719.86
2019-03-15T05:28:38.092Z,99716.33
2019-03-15T05:31:07.600Z,99715.03
2019-03-15T05:33:37.107Z,99712.08
2019-03-15T05:36:06.628Z,99704.80
2019-03-15T05:38:36.147Z,99711.94
2019-03-15T05:41:05.708Z,99709.88
2019-03-15T05:43:36.692Z,99704.03
2019-03-15T05:46:06.204Z,99699.78
2019-03-15T05:48:35.711Z,99694.72
2019-03-15T05:51:06.185Z,99696.01
2019-03-15T05:53:35.686Z,99693.83
2019-03-15T05:56:05.279Z,99687.38
2019-03-15T05:58:34.800Z,99690.48
2019-03-15T06:01:04.286Z,99691.24
2019-03-15T06:03:47.464Z,99690.75
2019-03-15T06:06:05.106Z,99686.93
2019-03-15T06:08:34.645Z,99683.34
2019-03-15T06:11:04.178Z,99672.77
2019-03-15T06:13:33.702Z,99681.20
2019-03-15T06:16:03.260Z,99672.72
2019-03-15T06:18:32.795Z,99669.53
2019-03-15T06:21:02.313Z,99675.13
2019-03-15T06:23:31.850Z,99670.02
2019-03-15T06:26:01.371Z,99675.48
2019-03-15T06:28:30.898Z,99680.68
2019-03-15T06:31:00.492Z,99667.08
2019-03-15T06:33:30.096Z,99667.19
2019-03-15T06:35:59.591Z,99662.42
2019-03-15T06:38:29.126Z,99673.15
2019-03-15T06:40:58.635Z,99673.20
2019-03-15T06:43:28.155Z,99676.13
2019-03-15T06:45:57.669Z,99673.31
2019-03-15T06:48:28.247Z,99676.64
2019-03-15T06:50:57.810Z,99667.77
2019-03-15T06:53:27.493Z,99656.47
2019-03-15T06:55:57.012Z,99660.55
2019-03-15T06:58:26.529Z,99650.13
2019-03-15T07:00:57.343Z,99642.88
2019-03-15T07:03:27.032Z,99649.72
2019-03-15T07:05:56.543Z,99640.02
2019-03-15T07:08:27.023Z,99638.35
2019-03-15T07:10:56.549Z,99633.89
2019-03-15T07:13:26.294Z,99630.68
2019-03-15T07:15:55.816Z,99599.13
2019-03-15T07:18:26.335Z,99637.54
2019-03-15T07:20:55.851Z,99634.18
2019-03-15T07:23:25.371Z,99629.92
2019-03-15T07:25:54.891Z,99622.83
2019-03-15T07:28:24.407Z,99619.80
2019-03-15T07:30:53.928Z,99615.96
2019-03-15T07:33:23.451Z,99620.09
2019-03-15T07:35:52.963Z,99606.89
2019-03-15T07:38:22.465Z,99622.14
2019-03-15T07:40:51.964Z,99614.52
2019-03-15T07:43:21.550Z,99613.63
2019-03-15T07:45:51.063Z,99615.02
2019-03-15T07:48:22.651Z,99604.41
2019-03-15T07:50:51.780Z,99606.58
2019-03-15T07:53:21.290Z,99613.78
2019-03-15T07:55:50.796Z,99610.00
2019-03-15T07:58:20.294Z,99609.12
2019-03-15T08:00:49.803Z,99604.87
2019-03-15T08:03:19.306Z,99603.98
2019-03-15T08:05:48.810Z,99600.20
2019-03-15T08:08:18.317Z,99588.41
2019-03-15T08:10:47.880Z,99587.63
2019-03-15T08:13:17.381Z,99591.91
2019-03-15T08:15:46.897Z,99593.20
2019-03-15T08:18:17.390Z,99592.31
2019-03-15T08:20:46.907Z,99591.73
2019-03-15T08:23:16.452Z,99584.63
2019-03-15T08:25:45.971Z,99576.17
2019-03-15T08:28:15.488Z,99577.41
2019-03-15T08:30:45.016Z,99578.72
2019-03-15T08:33:14.545Z,99569.79
2019-03-15T08:35:44.073Z,99570.36
2019-03-15T08:38:14.563Z,99564.70
2019-03-15T08:40:44.107Z,99576.09
2019-03-15T08:43:13.703Z,99567.75
2019-03-15T08:45:43.235Z,99562.29
2019-03-15T08:48:12.862Z,99568.52
2019-03-15T08:50:42.379Z,99566.09
2019-03-15T08:53:11.895Z,99573.77
2019-03-15T08:55:41.442Z,99570.31
2019-03-15T08:58:15.832Z,99569.34
2019-03-15T09:00:42.159Z,99560.89
2019-03-15T09:03:11.667Z,99554.05
2019-03-15T09:05:41.191Z,99560.48
2019-03-15T09:08:10.716Z,99553.77
2019-03-15T09:10:40.236Z,99549.16
2019-03-15T09:13:09.782Z,99545.72
2019-03-15T09:15:39.276Z,99540.30
2019-03-15T09:18:08.799Z,99548.74
2019-03-15T09:20:38.334Z,99541.20
2019-03-15T09:23:07.878Z,99559.40
2019-03-15T09:25:37.406Z,99556.89
2019-03-15T09:28:06.922Z,99545.00
2019-03-15T09:30:36.468Z,99531.87
2019-03-15T09:33:06.163Z,99527.66
2019-03-15T09:35:35.680Z,99519.13
2019-03-15T09:38:05.191Z,99516.59
2019-03-15T09:40:34.716Z,99528.42
2019-03-15T09:43:04.237Z,99516.95
2019-03-15T09:45:33.747Z,99501.63
2019-03-15T09:48:03.266Z,99495.73
2019-03-15T09:50:39.986Z,99491.88
2019-03-15T09:53:05.989Z,99491.91
2019-03-15T09:55:35.315Z,99483.90
2019-03-15T09:58:04.827Z,99476.17
2019-03-15T10:00:34.345Z,99476.59
2019-03-15T10:03:03.859Z,99472.70
2019-03-15T10:05:33.367Z,99474.46
2019-03-15T10:08:02.885Z,99473.53
2019-03-15T10:10:33.376Z,99476.44
2019-03-15T10:13:06.291Z,99466.71
2019-03-15T10:15:34.139Z,99466.23
2019-03-15T10:18:03.630Z,99461.64
2019-03-15T10:20:33.147Z,99448.13
2019-03-15T10:23:05.807Z,99441.73
2019-03-15T10:25:46.323Z,99439.53
2019-03-15T10:28:05.209Z,99425.55
2019-03-15T10:30:34.709Z,99421.83
2019-03-15T10:33:04.379Z,99415.41
2019-03-15T10:35:33.888Z,99420.06
2019-03-15T10:38:03.412Z,99402.34
2019-03-15T10:40:32.984Z,99392.63
2019-03-15T10:43:02.447Z,99396.47
2019-03-15T10:45:31.981Z,99395.58
2019-03-15T10:48:01.516Z,99390.14
2019-03-15T10:50:31.359Z,99384.17
2019-03-15T10:53:00.895Z,99380.39
2019-03-15T10:55:30.513Z,99375.72
2019-03-15T10:58:00.047Z,99376.56
2019-03-15T11:00:29.642Z,99373.20
2019-03-15T11:02:59.177Z,99358.74
2019-03-15T11:05:28.690Z,99355.31
2019-03-15T11:07:58.216Z,99357.47
2019-03-15T11:10:27.738Z,99348.16
2019-03-15T11:12:57.469Z,99340.94
2019-03-15T11:15:26.995Z,99340.08
2019-03-15T11:17:56.508Z,99340.50
2019-03-15T11:20:26.013Z,99340.09
2019-03-15T11:22:55.578Z,99340.09
2019-03-15T11:25:25.094Z,99335.81
2019-03-15T11:27:54.618Z,99332.84
2019-03-15T11:30:24.151Z,99324.80
2019-03-15T11:32:53.683Z,99324.80
2019-03-15T11:35:23.229Z,99333.30
2019-03-15T11:37:52.752Z,99318.41
2019-03-15T11:40:23.055Z,99325.20
2019-03-15T11:42:52.577Z,99320.97
2019-03-15T11:45:22.073Z,99315.87
2019-03-15T11:48:03.390Z,99308.65
2019-03-15T11:50:22.822Z,99306.93
2019-03-15T11:52:52.353Z,99300.98
2019-03-15T11:55:21.866Z,99279.73
2019-03-15T11:57:51.382Z,99292.48
2019-03-15T12:00:20.964Z,99269.11
2019-03-15T12:02:50.499Z,99275.45
2019-03-15T12:05:20.026Z,99287.38
2019-03-15T12:07:49.547Z,99282.70
2019-03-15T12:10:19.139Z,99292.87
2019-03-15T12:12:48.732Z,99302.27
2019-03-15T12:15:18.384Z,99305.67
2019-03-15T12:17:47.897Z,99296.72
2019-03-15T12:20:17.419Z,99280.48
2019-03-15T12:22:46.932Z,99289.89
2019-03-15T12:25:16.453Z,99288.56
2019-03-15T12:27:45.971Z,99292.30
2019-03-15T12:30:15.593Z,99287.98
2019-03-15T12:32:45.111Z,99275.25
2019-03-15T12:35:14.686Z,99288.33
2019-03-15T12:37:44.371Z,99282.34
2019-03-15T12:40:14.086Z,99277.09
2019-03-15T12:42:43.743Z,99269.18
2019-03-15T12:45:13.339Z,99268.33
2019-03-15T12:47:42.916Z,99258.72
2019-03-15T12:50:12.973Z,99261.67
2019-03-15T12:52:47.532Z,99256.44
2019-03-15T12:55:14.023Z,99259.32
2019-03-15T12:57:48.805Z,99250.86
2019-03-15T13:00:16.641Z,99258.24
2019-03-15T13:02:46.185Z,99256.83
2019-03-15T13:05:15.694Z,99246.64
2019-03-15T13:07:45.222Z,99243.84
2019-03-15T13:10:14.823Z,99233.67
2019-03-15T13:12:44.381Z,99221.63
2019-03-15T13:15:13.975Z,99211.86
2019-03-15T13:17:43.655Z,99209.92
2019-03-15T13:20:13.440Z,99208.23
2019-03-15T13:22:42.954Z,99214.31
2019-03-15T13:25:12.638Z,99220.47
2019-03-15T13:27:42.174Z,99194.34
2019-03-15T13:30:11.770Z,99214.06
2019-03-15T13:32:41.278Z,99217.70
2019-03-15T13:35:11.081Z,99237.03
2019-03-15T13:37:42.779Z,99231.50
2019-03-15T13:40:11.824Z,99234.77
2019-03-15T13:42:41.343Z,99213.52
2019-03-15T13:45:11.963Z,99222.72
2019-03-15T13:47:41.493Z,99226.13
2019-03-15T13:50:11.700Z,99236.66
2019-03-15T13:52:42.254Z,99236.71
2019-03-15T13:55:12.133Z,99237.92
2019-03-15T13:57:41.650Z,99236.21
2019-03-15T14:00:12.433Z,99243.48
2019-03-15T14:02:42.047Z,99239.52
2019-03-15T14:05:11.648Z,99231.06
2019-03-15T14:07:41.165Z,99224.01
2019-03-15T14:10:10.907Z,99235.73
2019-03-15T14:12:41.617Z,99206.38
2019-03-15T14:15:11.527Z,99204.08
2019-03-15T14:17:41.058Z,99221.06
2019-03-15T14:20:10.618Z,99223.68
2019-03-15T14:22:40.147Z,99228.66
2019-03-15T14:25:10.820Z,99220.66
2019-03-15T14:27:40.344Z,99216.16
2019-03-15T14:30:11.053Z,99228.88
2019-03-15T14:32:40.576Z,99229.52
2019-03-15T14:35:10.180Z,99238.05
2019-03-15T14:37:40.255Z,99236.24
2019-03-15T14:40:10.617Z,99232.58
2019-03-15T14:42:40.914Z,99230.94
2019-03-15T14:45:11.501Z,99238.13
2019-03-15T14:47:41.099Z,99238.56
2019-03-15T14:50:10.720Z,99221.45
2019-03-15T14:52:40.327Z,99234.84
2019-03-15T14:55:10.063Z,99249.20
2019-03-15T14:57:51.152Z,99236.75
2019-03-15T15:00:12.275Z,99269.34
2019-03-15T15:02:41.856Z,99265.52
2019-03-15T15:05:11.739Z,99268.49
2019-03-15T15:07:41.259Z,99254.27
2019-03-15T15:10:11.200Z,99295.40
2019-03-15T15:12:40.702Z,99274.84
2019-03-15T15:15:11.669Z,99264.11
2019-03-15T15:17:41.453Z,99269.89
2019-03-15T15:20:10.979Z,99278.20
2019-03-15T15:22:40.736Z,99288.62
2019-03-15T15:25:11.349Z,99270.63
2019-03-15T15:27:40.884Z,99275.27
2019-03-15T15:30:11.413Z,99272.33
2019-03-15T15:32:41.030Z,99259.67
2019-03-15T15:35:11.146Z,99261.42
2019-03-15T15:37:41.649Z,99260.56
2019-03-15T15:40:11.780Z,99264.35
2019-03-15T15:42:41.281Z,99264.83
2019-03-15T15:45:11.112Z,99294.61
2019-03-15T15:47:40.649Z,99290.91
2019-03-15T15:50:10.200Z,99290.44
2019-03-15T15:52:39.733Z,99286.13
2019-03-15T15:55:09.415Z,99294.86
2019-03-15T15:57:39.136Z,99301.94
2019-03-15T16:00:10.315Z,99305.30
2019-03-15T16:02:39.839Z,99301.33
2019-03-15T16:05:09.657Z,99304.66
2019-03-15T16:07:39.179Z,99314.63
2019-03-15T16:10:09.927Z,99292.52
2019-03-15T16:12:39.539Z,99285.33
2019-03-15T16:15:10.108Z,99299.25
2019-03-15T16:17:39.736Z,99303.52
2019-03-15T16:20:09.546Z,99300.47
2019-03-15T16:22:39.141Z,99298.48
2019-03-15T16:25:08.712Z,99305.17
2019-03-15T16:27:38.301Z,99292.43
2019-03-15T16:30:09.939Z,99284.70
2019-03-15T16:32:39.527Z,99295.03
2019-03-15T16:35:10.469Z,99292.73
2019-03-15T16:37:40.002Z,99325.63
2019-03-15T16:40:09.730Z,99287.08
2019-03-15T16:42:39.316Z,99318.36
2019-03-15T16:45:11.253Z,99303.12
2019-03-15T16:47:40.769Z,99328.55
2019-03-15T16:50:10.989Z,99321.66
2019-03-15T16:52:40.522Z,99334.40
2019-03-15T16:55:10.444Z,99342.75
2019-03-15T16:57:40.127Z,99353.05
2019-03-15T17:00:11.466Z,99346.13
2019-03-15T17:02:41.063Z,99365.82
2019-03-15T17:05:10.742Z,99366.11
2019-03-15T17:07:40.315Z,99370.83
2019-03-15T17:10:10.236Z,99389.13
2019-03-15T17:12:39.852Z,99394.31
2019-03-15T17:15:10.897Z,99404.19
2019-03-15T17:17:40.459Z,99402.52
2019-03-15T17:20:11.002Z,99411.06
2019-03-15T17:22:40.617Z,99418.69
2019-03-15T17:25:10.634Z,99431.87
2019-03-15T17:27:40.246Z,99436.54
2019-03-15T17:30:11.371Z,99456.97
2019-03-15T17:32:40.920Z,99460.78
2019-03-15T17:35:11.756Z,99455.69
2019-03-15T17:37:41.506Z,99465.46
2019-03-15T17:40:12.258Z,99476.49
2019-03-15T17:42:41.884Z,99462.92
2019-03-15T17:45:11.471Z,99481.64
2019-03-15T17:47:40.999Z,99484.19
2019-03-15T17:50:13.167Z,99496.95
2019-03-15T17:52:43.343Z,99494.81
2019-03-15T17:55:12.944Z,99504.19
2019-03-15T17:57:45.383Z,99508.00
2019-03-15T18:00:18.566Z,99507.13
2019-03-15T18:02:48.168Z,99520.78
2019-03-15T18:05:17.691Z,99523.70
2019-03-15T18:07:47.209Z,99537.30
2019-03-15T18:10:16.798Z,99531.36
2019-03-15T18:12:46.385Z,99535.16
2019-03-15T18:15:15.888Z,99542.39
2019-03-15T18:17:45.540Z,99548.34
2019-03-15T18:20:15.123Z,99555.97
2019-03-15T18:22:45.682Z,99561.03
2019-03-15T18:25:16.043Z,99561.42
2019-03-15T18:27:45.832Z,99560.98
2019-03-15T18:30:15.538Z,99550.70
2019-03-15T18:32:45.137Z,99577.14
2019-03-15T18:35:14.756Z,99578.45
2019-03-15T18:37:44.353Z,99571.09
2019-03-15T18:40:14.034Z,99587.42
2019-03-15T18:42:43.723Z,99587.77
2019-03-15T18:45:13.358Z,99595.05
2019-03-15T18:47:43.057Z,99591.24
2019-03-15T18:50:15.296Z,99603.97
2019-03-15T18:52:44.855Z,99615.84
2019-03-15T18:55:14.507Z,99600.03
2019-03-15T18:57:44.052Z,99611.94
2019-03-15T19:00:16.720Z,99633.66
2019-03-15T19:02:46.611Z,99567.59
2019-03-15T19:05:16.200Z,99606.77
2019-03-15T19:07:45.749Z,99637.38
2019-03-15T19:10:15.345Z,99642.53
2019-03-15T19:12:45.033Z,99633.49
2019-03-15T19:15:14.741Z,99641.48
2019-03-15T19:17:44.332Z,99627.48
2019-03-15T19:20:13.942Z,99650.49
2019-03-15T19:22:43.550Z,99653.09
2019-03-15T19:25:13.157Z,99653.56
2019-03-15T19:27:42.718Z,99656.38
2019-03-15T19:30:12.780Z,99664.97
2019-03-15T19:32:42.336Z,99660.13
2019-03-15T19:35:11.879Z,99678.66
2019-03-15T19:37:42.476Z,99675.09
2019-03-15T19:40:12.565Z,99684.55
2019-03-15T19:42:44.893Z,99685.02
2019-03-15T19:45:13.514Z,99696.17
2019-03-15T19:47:43.106Z,99694.42
2019-03-15T19:50:13.795Z,99694.42
2019-03-15T19:52:43.341Z,99701.17
2019-03-15T19:55:12.989Z,99704.63
2019-03-15T19:57:42.754Z,99721.23
2019-03-15T20:00:14.333Z,99724.82
2019-03-15T20:02:43.925Z,99740.61
2019-03-15T20:05:13.520Z,99743.88
2019-03-15T20:07:43.138Z,99747.41
2019-03-15T20:10:16.197Z,99743.10
2019-03-15T20:12:44.460Z,99739.08
2019-03-15T20:15:14.726Z,99756.41
2019-03-15T20:17:44.352Z,99752.55
2019-03-15T20:20:13.983Z,99755.45
2019-03-15T20:22:43.537Z,99767.63
2019-03-15T20:25:13.074Z,99777.21
2019-03-15T20:27:42.689Z,99776.80
2019-03-15T20:30:21.961Z,99775.83
2019-03-15T20:32:47.214Z,99783.82
2019-03-15T20:35:16.739Z,99789.47
2019-03-15T20:37:46.281Z,99791.80
2019-03-15T20:40:15.963Z,99798.96
2019-03-15T20:42:45.472Z,99803.44
2019-03-15T20:45:15.338Z,99799.22
2019-03-15T20:47:44.928Z,99799.66
2019-03-15T20:50:14.550Z,99802.20
2019-03-15T20:52:44.171Z,99797.86
2019-03-15T20:55:13.699Z,99797.03
2019-03-15T20:57:43.346Z,99795.82
2019-03-15T21:00:14.046Z,99791.08
2019-03-15T21:02:43.574Z,99813.78
2019-03-15T21:05:13.248Z,99807.69
2019-03-15T21:07:43.793Z,99838.30
2019-03-15T21:10:13.908Z,99829.50
2019-03-15T21:12:44.277Z,99818.69
2019-03-15T21:15:14.420Z,99805.61
2019-03-15T21:17:44.177Z,99835.83
2019-03-15T21:20:14.078Z,99844.22
2019-03-15T21:22:43.635Z,99847.05
2019-03-15T21:25:13.192Z,99855.89
2019-03-15T21:27:53.019Z,99858.69
2019-03-15T21:30:15.066Z,99843.97
2019-03-15T21:32:44.582Z,99859.05
2019-03-15T21:35:14.243Z,99864.64
2019-03-15T21:37:43.755Z,99860.41
2019-03-15T21:40:13.477Z,99873.05
2019-03-15T21:42:42.997Z,99853.47
2019-03-15T21:45:12.860Z,99855.16
2019-03-15T21:47:42.340Z,99864.78
2019-03-15T21:50:12.283Z,99874.25
2019-03-15T21:52:41.803Z,99871.41
2019-03-15T21:55:11.399Z,99865.23
2019-03-15T21:57:40.903Z,99872.19
2019-03-15T22:00:11.992Z,99881.33
2019-03-15T22:02:41.505Z,99895.56
2019-03-15T22:05:11.089Z,99895.72
2019-03-15T22:07:40.603Z,99895.47
2019-03-15T22:10:10.542Z,99901.50
2019-03-15T22:12:40.043Z,99901.47
2019-03-15T22:15:09.867Z,99894.22
2019-03-15T22:17:39.556Z,99891.56
2019-03-15T22:20:09.690Z,99911.30
2019-03-15T22:22:39.201Z,99902.27
2019-03-15T22:25:08.796Z,99910.28
2019-03-15T22:27:38.365Z,99919.75
2019-03-15T22:30:08.117Z,99920.88
2019-03-15T22:32:37.628Z,99925.67
2019-03-15T22:35:07.368Z,99926.77
2019-03-15T22:37:36.942Z,99923.07
2019-03-15T22:40:06.609Z,99925.44
2019-03-15T22:42:36.151Z,99926.92
2019-03-15T22:45:06.482Z,99931.23
2019-03-15T22:47:35.997Z,99932.20
2019-03-15T22:50:06.801Z,99939.70
2019-03-15T22:52:36.315Z,99928.19
2019-03-15T22:55:06.320Z,99937.30
2019-03-15T22:57:35.851Z,99942.19
2019-03-15T23:00:07.590Z,99943.46
2019-03-15T23:02:38.788Z,99948.91
2019-03-15T23:05:08.412Z,99948.63
2019-03-15T23:07:38.007Z,99954.27
2019-03-15T23:10:08.549Z,99957.75
2019-03-15T23:12:38.247Z,99967.55
2019-03-15T23:15:07.806Z,99976.66
2019-03-15T23:17:37.316Z,99981.98
2019-03-15T23:20:07.260Z,99987.69
2019-03-15T23:22:36.757Z,99991.75
2019-03-15T23:25:06.536Z,99994.33
2019-03-15T23:27:36.233Z,99990.03
2019-03-15T23:30:05.921Z,99995.63
2019-03-15T23:32:35.441Z,99998.33
2019-03-15T23:35:05.261Z,100000.95
2019-03-15T23:37:34.845Z,99996.13
2019-03-15T23:40:04.877Z,100005.84
2019-03-15T23:42:34.436Z,100012.36
2019-03-15T23:45:04.211Z,100016.72
2019-03-15T23:47:33.743Z,100019.45
2019-03-15T23:50:03.444Z,100018.03
2019-03-15T23:52:32.994Z,100013.99
2019-03-15T23:55:02.505Z,100021.83
2019-03-15T23:57:32.162Z,100020.94
